Hawks, Michigan
Current Conditions -  °F | °C
As of 9:25 AM on Saturday 25 Oct 2014 (Local Time) from KPZQ Reporting Station
Clear Clear  
Wind Chill: 55°   Ceiling: Unl
Heat Index: 55°   Visibility: 10mi
Dew Point: 52°   Wind: 14mph
Humidity: 88%   Direction: 250°WSW
Pressure: 29.67"   Gusts: 18mph
Location:  45.3°N, 83.89°W
Report Text: KPZQ 251325Z AUTO 25012G16KT 10SM CLR 13/11 A2967 RMK AO2
Loading
Personal Weather Stations






























Interactive Weather Map
Tropical Storm Tracking
New forecast layout! Learn more

10-Day Weather Forecast

Advertisements
Track Severe Weather on mobile